createdAt,value
2019-01-09T00:02:17.730Z,0.80
2019-01-09T00:06:34.128Z,0.90
2019-01-09T00:10:50.568Z,0.90
2019-01-09T00:15:07.247Z,0.53
2019-01-09T00:19:23.967Z,0.50
2019-01-09T00:23:40.528Z,0.70
2019-01-09T00:27:56.923Z,0.60
2019-01-09T00:32:13.614Z,1.63
2019-01-09T00:36:30.009Z,0.33
2019-01-09T00:40:46.444Z,1.87
2019-01-09T00:45:05.443Z,4.60
2019-01-09T00:49:23.982Z,2.40
2019-01-09T00:53:40.376Z,0.40
2019-01-09T00:57:56.803Z,0.40
2019-01-09T01:02:39.749Z,0.60
2019-01-09T01:07:19.809Z,0.43
2019-01-09T01:11:52.300Z,0.43
2019-01-09T01:16:18.849Z,0.43
2019-01-09T01:20:38.963Z,0.47
2019-01-09T01:25:16.107Z,1.23
2019-01-09T01:29:42.098Z,1.43
2019-01-09T01:34:14.680Z,0.60
2019-01-09T01:38:37.776Z,1.80
2019-01-09T01:43:04.503Z,0.60
2019-01-09T01:47:25.939Z,1.50
2019-01-09T01:51:55.456Z,0.60
2019-01-09T01:56:27.568Z,0.80
2019-01-09T02:00:59.703Z,0.43
2019-01-09T02:05:28.946Z,2.10
2019-01-09T02:09:53.305Z,0.90
2019-01-09T02:14:25.729Z,1.30
2019-01-09T02:18:51.813Z,0.90
2019-01-09T02:23:18.484Z,0.90
2019-01-09T02:27:40.685Z,1.00
2019-01-09T02:32:09.860Z,0.90
2019-01-09T02:36:26.439Z,0.67
2019-01-09T02:40:45.706Z,2.07
2019-01-09T02:48:22.635Z,2.10
2019-01-09T02:49:45.621Z,0.60
2019-01-09T02:54:11.166Z,4.67
2019-01-09T02:59:01.703Z,0.80
2019-01-09T03:03:28.943Z,3.73
2019-01-09T03:08:01.766Z,2.13
2019-01-09T03:12:26.383Z,0.53
2019-01-09T03:18:16.494Z,0.97
2019-01-09T03:22:05.654Z,3.83
2019-01-09T03:27:38.690Z,0.83
2019-01-09T03:39:45.647Z,1.20
2019-01-09T03:41:34.437Z,1.00
2019-01-09T03:46:08.969Z,1.00
2019-01-09T03:51:10.512Z,0.70
2019-01-09T03:59:14.108Z,0.90
2019-01-09T04:05:51.920Z,0.77
2019-01-09T04:10:14.372Z,0.90
2019-01-09T04:14:33.709Z,3.90
2019-01-09T04:18:58.359Z,0.97
2019-01-09T04:32:49.959Z,3.00
2019-01-09T04:37:24.958Z,0.70
2019-01-09T04:41:55.491Z,1.23
2019-01-09T04:46:21.176Z,5.53
2019-01-09T04:55:56.966Z,1.33
2019-01-09T05:00:20.050Z,2.93
2019-01-09T05:05:04.412Z,2.60
2019-01-09T05:09:05.760Z,1.53
2019-01-09T05:14:01.243Z,2.17
2019-01-09T05:18:26.446Z,2.37
2019-01-09T05:22:55.752Z,1.23
2019-01-09T05:27:13.368Z,1.33
2019-01-09T05:31:30.543Z,3.80
2019-01-09T05:36:15.801Z,1.40
2019-01-09T05:40:38.154Z,3.30
2019-01-09T05:45:00.271Z,2.23
2019-01-09T05:49:25.310Z,7.63
2019-01-09T05:53:41.736Z,7.43
2019-01-09T05:58:03.292Z,4.80
2019-01-09T06:08:11.173Z,8.18
2019-01-09T06:17:26.917Z,4.13
2019-01-09T06:21:56.309Z,4.17
2019-01-09T06:31:41.085Z,5.53
2019-01-09T06:35:58.101Z,3.70
2019-01-09T06:40:30.338Z,5.47
2019-01-09T06:44:38.840Z,6.77
2019-01-09T06:48:58.360Z,7.70
2019-01-09T06:53:24.609Z,4.83
2019-01-09T06:57:42.480Z,4.10
2019-01-09T07:02:07.750Z,3.93
2019-01-09T07:06:31.922Z,2.90
2019-01-09T07:11:05.785Z,3.17
2019-01-09T07:15:39.117Z,3.03
2019-01-09T07:19:57.878Z,2.90
2019-01-09T07:24:43.815Z,7.07
2019-01-09T07:29:47.751Z,2.67
2019-01-09T07:34:09.326Z,3.17
2019-01-09T07:38:35.419Z,2.83
2019-01-09T07:42:53.996Z,2.03
2019-01-09T07:47:14.805Z,3.90
2019-01-09T07:51:44.723Z,4.93
2019-01-09T07:56:10.670Z,3.03
2019-01-09T08:00:33.977Z,2.70
2019-01-09T08:04:50.475Z,2.10
2019-01-09T08:09:14.487Z,7.23
2019-01-09T08:13:31.840Z,2.93
2019-01-09T08:17:50.747Z,3.47
2019-01-09T08:22:07.502Z,2.13
2019-01-09T08:26:23.946Z,2.60
2019-01-09T08:30:40.413Z,1.97
2019-01-09T08:34:56.831Z,5.23
2019-01-09T08:39:13.289Z,3.07
2019-01-09T08:43:30.060Z,2.40
2019-01-09T08:47:46.616Z,3.03
2019-01-09T08:52:03.394Z,3.10
2019-01-09T08:56:20.086Z,5.17
2019-01-09T09:00:36.535Z,4.77
2019-01-09T09:04:53.315Z,4.20
2019-01-09T09:09:10.066Z,6.00
2019-01-09T09:13:35.559Z,14.63
2019-01-09T09:17:52.264Z,12.83
2019-01-09T09:22:08.724Z,4.20
2019-01-09T09:26:25.139Z,8.23
2019-01-09T09:30:41.947Z,4.50
2019-01-09T09:34:58.364Z,6.60
2019-01-09T09:39:14.821Z,4.47
2019-01-09T09:43:31.223Z,3.17
2019-01-09T09:47:47.947Z,5.53
2019-01-09T09:52:04.651Z,6.40
2019-01-09T09:56:25.169Z,3.00
2019-01-09T10:00:41.620Z,4.30
2019-01-09T10:05:00.271Z,4.13
2019-01-09T10:09:20.026Z,4.20
2019-01-09T10:13:46.746Z,9.17
2019-01-09T10:18:05.169Z,3.57
2019-01-09T10:22:54.234Z,3.53
2019-01-09T10:27:18.426Z,3.50
2019-01-09T10:32:10.497Z,3.50
2019-01-09T10:36:37.700Z,3.07
2019-01-09T10:41:31.313Z,3.03
2019-01-09T12:37:51.089Z,3.13
2019-01-09T12:57:30.396Z,3.20
2019-01-09T13:43:31.850Z,2.60
2019-01-09T13:47:48.278Z,2.60
2019-01-09T13:52:04.993Z,2.20
2019-01-09T13:56:21.433Z,2.30
2019-01-09T14:00:37.847Z,1.77
2019-01-09T14:04:54.294Z,1.63
2019-01-09T14:09:10.733Z,2.37
2019-01-09T14:13:27.182Z,1.60
2019-01-09T14:17:43.575Z,2.27
2019-01-09T14:22:00.010Z,1.77
2019-01-09T14:26:16.449Z,1.53
2019-01-09T14:30:32.889Z,2.17
2019-01-09T14:34:49.262Z,1.20
2019-01-09T14:39:05.976Z,1.50
2019-01-09T14:43:22.414Z,1.80
2019-01-09T14:47:38.918Z,1.83
2019-01-09T14:51:55.362Z,1.90
2019-01-09T14:56:11.787Z,1.67
2019-01-09T15:00:28.329Z,1.87
2019-01-09T15:04:45.193Z,2.83
2019-01-09T15:09:01.715Z,1.70
2019-01-09T15:13:18.271Z,2.95
2019-01-09T15:17:34.692Z,1.70
2019-01-09T15:21:51.163Z,1.50
2019-01-09T15:26:07.591Z,2.23
2019-01-09T15:30:26.028Z,3.98
2019-01-09T15:34:42.423Z,2.07
2019-01-09T15:38:58.844Z,1.80
2019-01-09T15:43:15.277Z,2.00
2019-01-09T15:47:31.690Z,4.27
2019-01-09T15:51:48.159Z,1.60
2019-01-09T15:56:04.584Z,2.03
2019-01-09T16:00:36.026Z,2.73
2019-01-09T16:04:52.454Z,2.43
2019-01-09T16:09:08.873Z,3.10
2019-01-09T16:13:25.817Z,2.67
2019-01-09T16:17:42.309Z,3.03
2019-01-09T16:22:03.021Z,2.83
2019-01-09T16:26:19.987Z,6.83
2019-01-09T16:30:42.844Z,2.73
2019-01-09T16:34:59.283Z,4.00
2019-01-09T16:39:17.428Z,5.77
2019-01-09T16:43:33.936Z,2.37
2019-01-09T16:47:50.675Z,4.50
2019-01-09T16:52:07.440Z,3.93
2019-01-09T16:56:24.132Z,5.20
2019-01-09T17:00:42.068Z,3.30
2019-01-09T17:04:58.527Z,10.20
2019-01-09T17:09:14.982Z,5.43
2019-01-09T17:13:31.434Z,6.80
2019-01-09T17:17:47.888Z,5.07
2019-01-09T17:22:04.616Z,5.50
2019-01-09T17:26:21.042Z,5.00
2019-01-09T17:30:37.482Z,2.97
2019-01-09T17:34:53.877Z,6.80
2019-01-09T17:39:10.613Z,3.50
2019-01-09T17:43:27.599Z,3.53
2019-01-09T17:47:44.035Z,3.73
2019-01-09T17:52:00.471Z,5.70
2019-01-09T17:56:16.960Z,3.20
2019-01-09T18:00:36.303Z,3.53
2019-01-09T18:04:52.750Z,3.13
2019-01-09T18:09:09.460Z,3.00
2019-01-09T18:13:25.909Z,4.53
2019-01-09T18:17:42.323Z,4.50
2019-01-09T18:21:58.860Z,6.40
2019-01-09T18:26:15.343Z,3.90
2019-01-09T18:30:41.661Z,5.80
2019-01-09T18:34:58.313Z,4.17
2019-01-09T18:39:18.577Z,3.53
2019-01-09T18:43:56.974Z,4.43
2019-01-09T18:48:33.132Z,3.93
2019-01-09T18:52:59.529Z,3.43
2019-01-09T18:57:15.996Z,4.17
2019-01-09T19:01:32.448Z,3.00
2019-01-09T19:05:48.928Z,5.57
2019-01-09T19:10:14.833Z,4.60
2019-01-09T19:14:31.592Z,6.97
2019-01-09T19:18:48.295Z,4.40
2019-01-09T19:23:05.558Z,4.53
2019-01-09T19:27:22.385Z,6.10
2019-01-09T19:31:38.794Z,5.07
2019-01-09T19:35:55.536Z,4.20
2019-01-09T19:40:11.969Z,5.80
2019-01-09T19:44:28.713Z,3.37
2019-01-09T19:48:45.154Z,3.17
2019-01-09T19:53:01.852Z,3.57
2019-01-09T19:57:18.624Z,3.33
2019-01-09T20:01:36.597Z,6.70
2019-01-09T20:05:53.379Z,3.37
2019-01-09T20:10:13.464Z,4.13
2019-01-09T20:14:30.693Z,3.70
2019-01-09T20:18:49.996Z,3.43
2019-01-09T20:23:08.552Z,3.40
2019-01-09T20:27:24.993Z,3.57
2019-01-09T20:31:41.716Z,3.77
2019-01-09T20:35:58.376Z,3.87
2019-01-09T20:40:15.428Z,3.50
2019-01-09T20:44:32.741Z,4.97
2019-01-09T20:48:49.240Z,3.60
2019-01-09T20:53:05.698Z,5.27
2019-01-09T20:57:23.669Z,8.60
2019-01-09T21:01:40.440Z,7.95
2019-01-09T21:05:56.950Z,4.20
2019-01-09T21:10:15.056Z,6.10
2019-01-09T21:14:34.474Z,5.53
2019-01-09T21:18:50.901Z,5.43
2019-01-09T21:23:07.521Z,5.47
2019-01-09T21:27:23.966Z,4.40
2019-01-09T21:31:40.373Z,8.73
2019-01-09T21:35:57.069Z,5.47
2019-01-09T21:40:27.156Z,6.77
2019-01-09T21:44:43.593Z,5.10
2019-01-09T21:49:00.066Z,6.17
2019-01-09T21:53:17.246Z,6.30
2019-01-09T21:57:34.006Z,7.23
2019-01-09T22:01:50.825Z,5.80
2019-01-09T22:06:07.370Z,8.20
2019-01-09T22:10:29.382Z,5.93
2019-01-09T22:14:45.921Z,5.23
2019-01-09T22:19:11.721Z,7.10
2019-01-09T22:23:20.796Z,6.13
2019-01-09T22:27:37.237Z,6.20
2019-01-09T22:31:54.074Z,4.60
2019-01-09T22:36:10.670Z,5.33
2019-01-09T22:40:27.189Z,4.50
2019-01-09T22:44:43.951Z,8.37
2019-01-09T22:49:00.622Z,3.40
2019-01-09T22:53:17.300Z,4.70
2019-01-09T22:57:33.814Z,6.23
2019-01-09T23:01:50.613Z,4.63
2019-01-09T23:06:07.292Z,5.23
2019-01-09T23:10:23.964Z,6.47
2019-01-09T23:14:40.492Z,8.40
2019-01-09T23:18:57.007Z,6.03
2019-01-09T23:23:13.517Z,5.40
2019-01-09T23:27:29.998Z,7.57
2019-01-09T23:31:46.534Z,5.70
2019-01-09T23:36:03.167Z,7.20
2019-01-09T23:40:19.883Z,5.57
2019-01-09T23:44:36.408Z,7.03
2019-01-09T23:48:52.905Z,6.90
2019-01-09T23:53:09.441Z,4.00
2019-01-09T23:57:25.937Z,4.07
